createdAt,value
2019-05-13T06:25:33.662Z,85.41
2019-05-13T06:26:31.408Z,85.31
2019-05-13T06:27:31.770Z,85.21
2019-05-13T06:28:32.272Z,85.31
2019-05-13T06:29:31.910Z,84.74
2019-05-13T06:30:32.545Z,84.92
2019-05-13T06:31:32.249Z,84.74
2019-05-13T06:32:31.527Z,85.45
2019-05-13T06:33:31.707Z,85.35
2019-05-13T06:34:32.790Z,85.35
2019-05-13T06:35:32.343Z,84.01
2019-05-13T06:36:31.803Z,83.64
2019-05-13T06:37:32.167Z,82.87
2019-05-13T06:38:31.739Z,83.44
2019-05-13T06:39:31.812Z,83.35
2019-05-13T06:40:31.840Z,83.44
2019-05-13T06:41:32.335Z,83.83
2019-05-13T06:42:32.451Z,83.64
2019-05-13T06:43:31.585Z,83.16
2019-05-13T06:44:31.748Z,82.91
2019-05-13T06:45:31.689Z,82.82
2019-05-13T06:46:32.329Z,82.06
2019-05-13T06:47:32.200Z,81.67
2019-05-13T06:48:32.326Z,81.10
2019-05-13T06:49:32.383Z,81.10
2019-05-13T06:50:32.339Z,81.38
2019-05-13T06:51:31.511Z,81.01
2019-05-13T06:52:32.022Z,80.43
2019-05-13T06:53:32.206Z,80.53
2019-05-13T06:54:32.906Z,80.24
2019-05-13T06:55:31.627Z,80.15
2019-05-13T06:56:32.250Z,79.43
2019-05-13T06:57:32.246Z,79.33
2019-05-13T06:58:32.560Z,79.04
2019-05-13T06:59:31.733Z,79.33
2019-05-13T07:00:34.681Z,79.33
2019-05-13T07:01:32.315Z,79.80
2019-05-13T07:02:32.071Z,79.33
2019-05-13T07:03:32.256Z,78.18
2019-05-13T07:04:32.636Z,77.89
2019-05-13T07:05:31.887Z,77.51
2019-05-13T07:06:32.301Z,77.32
2019-05-13T07:07:31.916Z,77.51
2019-05-13T07:08:31.629Z,76.75
2019-05-13T07:09:32.545Z,76.75
2019-05-13T07:10:32.156Z,76.94
2019-05-13T07:11:31.692Z,76.60
2019-05-13T07:12:31.643Z,76.21
2019-05-13T07:13:32.368Z,74.88
2019-05-13T07:14:32.529Z,74.88
2019-05-13T07:15:31.678Z,74.78
2019-05-13T07:16:31.828Z,74.78
2019-05-13T07:17:32.321Z,74.82
2019-05-13T07:18:32.332Z,74.05
2019-05-13T07:19:32.448Z,73.29
2019-05-13T07:20:32.343Z,73.39
2019-05-13T07:21:32.395Z,73.10
2019-05-13T07:22:32.297Z,72.62
2019-05-13T07:23:32.025Z,73.00
2019-05-13T07:24:32.470Z,72.62
2019-05-13T07:25:32.625Z,72.53
2019-05-13T07:26:31.816Z,71.86
2019-05-13T07:27:31.997Z,71.76
2019-05-13T07:28:32.395Z,71.86
2019-05-13T07:29:32.723Z,71.47
2019-05-13T07:30:31.876Z,71.67
2019-05-13T07:31:32.467Z,71.57
2019-05-13T07:32:31.896Z,71.67
2019-05-13T07:33:32.204Z,70.90
2019-05-13T07:34:33.623Z,70.42
2019-05-13T07:35:37.591Z,69.47
2019-05-13T07:36:31.948Z,69.56
2019-05-13T07:37:31.988Z,69.66
2019-05-13T07:38:32.446Z,69.31
2019-05-13T07:39:32.887Z,69.50
2019-05-13T07:40:32.235Z,69.60
2019-05-13T07:41:39.034Z,68.45
2019-05-13T07:42:32.076Z,68.64
2019-05-13T07:43:32.282Z,68.55
2019-05-13T07:44:32.586Z,68.35
2019-05-13T07:45:32.077Z,67.78
2019-05-13T07:46:32.380Z,66.83
2019-05-13T07:47:32.103Z,66.83
2019-05-13T07:48:32.212Z,67.30
2019-05-13T07:49:32.191Z,67.75
2019-05-13T07:50:32.261Z,68.07
2019-05-13T07:51:32.291Z,67.49
2019-05-13T07:52:32.186Z,67.69
2019-05-13T07:53:32.394Z,66.73
2019-05-13T07:54:33.144Z,65.42
2019-05-13T07:55:32.221Z,65.04
2019-05-13T07:56:32.561Z,65.14
2019-05-13T07:57:32.253Z,65.42
2019-05-13T07:58:37.186Z,64.82
2019-05-13T07:59:32.276Z,65.04
2019-05-13T08:00:32.721Z,64.47
2019-05-13T08:01:32.889Z,63.99
2019-05-13T08:02:32.369Z,63.99
2019-05-13T08:03:32.339Z,62.74
2019-05-13T08:04:33.619Z,61.44
2019-05-13T08:05:32.370Z,61.15
2019-05-13T08:06:32.579Z,61.63
2019-05-13T08:07:32.398Z,62.30
2019-05-13T08:08:32.558Z,62.40
2019-05-13T08:09:32.430Z,61.91
2019-05-13T08:10:32.448Z,61.34
2019-05-13T08:11:35.357Z,61.18
2019-05-13T08:12:32.480Z,60.99
2019-05-13T08:13:32.499Z,60.61
2019-05-13T08:14:32.555Z,60.54
2019-05-13T08:15:32.540Z,60.80
2019-05-13T08:16:32.559Z,60.51
2019-05-13T08:17:32.868Z,60.89
2019-05-13T08:18:32.577Z,60.61
2019-05-13T08:19:32.921Z,59.45
2019-05-13T08:21:32.620Z,60.70
2019-05-13T08:22:32.635Z,60.32
2019-05-13T08:23:32.656Z,60.13
2019-05-13T08:24:32.755Z,59.87
2019-05-13T08:25:32.686Z,59.77
2019-05-13T08:26:32.701Z,59.01
2019-05-13T08:27:35.069Z,59.20
2019-05-13T08:28:32.748Z,58.91
2019-05-13T08:29:33.122Z,57.95
2019-05-13T08:30:32.769Z,58.50
2019-05-13T08:31:32.781Z,59.11
2019-05-13T08:32:32.798Z,57.95
2019-05-13T08:33:32.813Z,57.83
2019-05-13T08:34:33.261Z,58.31
2019-05-13T08:35:32.866Z,57.86
2019-05-13T08:36:32.874Z,55.40
2019-05-13T08:37:32.886Z,53.19
2019-05-13T08:38:32.892Z,53.38
2019-05-13T08:39:37.942Z,53.09
2019-05-13T08:40:32.965Z,53.70
2019-05-13T08:41:32.941Z,53.70
2019-05-13T08:42:32.951Z,53.22
2019-05-13T08:43:32.966Z,53.12
2019-05-13T08:44:32.994Z,52.67
2019-05-13T08:45:33.007Z,51.90
2019-05-13T08:46:33.032Z,51.10
2019-05-13T08:47:33.063Z,51.87
2019-05-13T08:48:33.092Z,51.97
2019-05-13T08:49:33.075Z,52.81
2019-05-13T08:50:33.088Z,53.28
2019-05-13T08:51:34.796Z,53.28
2019-05-13T08:52:33.126Z,53.41
2019-05-13T08:53:33.149Z,52.38
2019-05-13T08:54:33.262Z,50.46
2019-05-13T08:55:33.184Z,47.99
2019-05-13T08:56:33.197Z,46.45
2019-05-13T08:57:33.209Z,46.00
2019-05-13T08:58:33.239Z,44.46
2019-05-13T08:59:33.241Z,43.91
2019-05-13T09:00:33.256Z,43.23
2019-05-13T09:01:33.283Z,41.24
2019-05-13T09:02:33.287Z,40.18
2019-05-13T09:03:33.309Z,37.87
2019-05-13T09:04:33.318Z,38.18
2019-05-13T09:05:33.345Z,38.18
2019-05-13T09:06:33.354Z,37.99
2019-05-13T09:07:33.380Z,38.84
2019-05-13T09:08:33.397Z,39.12
2019-05-13T09:09:33.418Z,39.70
2019-05-13T09:10:33.427Z,40.30
2019-05-13T09:11:33.439Z,40.39
2019-05-13T09:12:37.051Z,40.51
2019-05-13T09:13:33.483Z,40.78
2019-05-13T09:14:33.501Z,40.58
2019-05-13T09:15:33.506Z,40.58
2019-05-13T09:16:33.523Z,40.49
2019-05-13T09:17:33.546Z,38.85
2019-05-13T09:18:33.572Z,37.60
2019-05-13T09:19:33.646Z,36.74
2019-05-13T09:20:33.598Z,37.60
2019-05-13T09:21:33.615Z,37.99
2019-05-13T09:22:33.637Z,38.18
2019-05-13T09:23:33.658Z,38.74
2019-05-13T09:24:37.564Z,38.84
2019-05-13T09:25:33.678Z,38.95
2019-05-13T09:26:33.697Z,37.79
2019-05-13T09:27:33.717Z,37.52
2019-05-13T09:28:33.737Z,37.45
2019-05-13T09:29:33.752Z,34.37
2019-05-13T09:30:33.767Z,32.73
2019-05-13T09:31:33.789Z,31.77
2019-05-13T09:32:33.798Z,32.44
2019-05-13T09:33:33.818Z,32.62
2019-05-13T09:34:33.844Z,32.90
2019-05-13T09:35:33.850Z,33.10
2019-05-13T09:36:33.872Z,34.06
2019-05-13T09:37:33.890Z,34.94
2019-05-13T09:38:33.909Z,34.94
2019-05-13T09:39:33.914Z,35.16
2019-05-13T09:40:33.953Z,34.29
2019-05-13T09:41:40.588Z,33.81
2019-05-13T09:42:48.151Z,33.89
2019-05-13T09:43:33.994Z,33.82
2019-05-13T09:44:34.007Z,33.63
2019-05-13T09:45:34.035Z,32.97
2019-05-13T09:46:34.043Z,33.17
2019-05-13T09:47:34.058Z,32.91
2019-05-13T09:48:34.083Z,31.75
2019-05-13T09:49:34.098Z,30.58
2019-05-13T09:50:36.178Z,29.24
2019-05-13T09:51:34.124Z,27.89
2019-05-13T09:52:34.148Z,27.51
2019-05-13T09:53:34.164Z,27.33
2019-05-13T09:54:34.203Z,26.92
2019-05-13T09:55:34.201Z,27.31
2019-05-13T09:56:34.225Z,27.50
2019-05-13T09:57:34.235Z,27.03
2019-05-13T09:58:34.246Z,26.73
2019-05-13T09:59:34.261Z,27.40
2019-05-13T10:00:34.295Z,27.68
2019-05-13T10:01:34.411Z,28.44
2019-05-13T10:02:34.322Z,28.55
2019-05-13T10:03:34.332Z,27.78
2019-05-13T10:04:34.350Z,26.91
2019-05-13T10:05:34.369Z,26.82
2019-05-13T10:06:34.389Z,27.03
2019-05-13T10:07:34.408Z,27.34
2019-05-13T10:08:34.436Z,26.95
2019-05-13T10:09:34.448Z,25.70
2019-05-13T10:10:34.469Z,26.10
2019-05-13T10:11:34.476Z,26.30
2019-05-13T10:12:34.498Z,25.35
2019-05-13T10:13:34.502Z,24.77
2019-05-13T10:14:34.573Z,24.67
2019-05-13T10:15:34.555Z,24.78
2019-05-13T10:16:34.562Z,24.78
2019-05-13T10:17:34.584Z,25.35
2019-05-13T10:18:34.600Z,25.93
2019-05-13T10:19:34.625Z,26.72
2019-05-13T10:20:34.644Z,26.41
2019-05-13T10:21:34.657Z,26.61
2019-05-13T10:22:34.664Z,26.77
2019-05-13T10:23:34.685Z,26.95
2019-05-13T10:24:34.711Z,27.73
2019-05-13T10:25:34.733Z,27.55
2019-05-13T10:26:34.744Z,27.36
2019-05-13T10:27:34.766Z,27.29
2019-05-13T10:28:34.910Z,27.29
2019-05-13T10:29:34.792Z,27.31
2019-05-13T10:30:34.824Z,27.00
2019-05-13T10:31:34.827Z,26.81
2019-05-13T10:32:34.840Z,27.11
2019-05-13T10:33:34.853Z,27.03
2019-05-13T10:34:34.885Z,26.63
2019-05-13T10:35:34.904Z,26.92
2019-05-13T10:36:35.025Z,26.04
2019-05-13T10:37:34.926Z,26.25
2019-05-13T10:38:34.959Z,25.96
2019-05-13T10:39:34.966Z,26.17
2019-05-13T10:40:34.987Z,25.78
2019-05-13T10:41:35.035Z,25.20
2019-05-13T10:42:35.027Z,25.38
2019-05-13T10:44:35.068Z,26.26
2019-05-13T10:45:35.084Z,25.29
2019-05-13T10:46:35.169Z,24.79
2019-05-13T10:47:35.108Z,24.69
2019-05-13T10:48:35.136Z,24.60
2019-05-13T10:49:35.167Z,24.71
2019-05-13T10:50:35.166Z,24.61
2019-05-13T10:51:35.191Z,24.82
2019-05-13T10:52:35.209Z,24.43
2019-05-13T10:53:35.228Z,24.54
2019-05-13T10:54:35.240Z,24.37
2019-05-13T10:55:35.253Z,23.60
2019-05-13T10:56:35.275Z,22.94
2019-05-13T10:57:35.287Z,22.45
2019-05-13T10:58:35.309Z,22.16
2019-05-13T10:59:35.319Z,22.56
2019-05-13T11:00:35.337Z,21.89
2019-05-13T11:01:35.357Z,21.30
2019-05-13T11:02:35.389Z,21.88
2019-05-13T11:03:35.417Z,22.16
2019-05-13T11:04:35.415Z,22.47
2019-05-13T11:05:40.527Z,21.20
2019-05-13T11:06:35.453Z,21.09
2019-05-13T11:07:35.472Z,21.45
2019-05-13T11:08:35.485Z,21.62
2019-05-13T11:09:35.509Z,22.50
2019-05-13T11:10:35.525Z,22.69
2019-05-13T11:11:35.541Z,21.54
2019-05-13T11:12:35.561Z,21.06
2019-05-13T11:13:52.329Z,20.49
2019-05-13T11:14:35.601Z,19.91
2019-05-13T11:15:41.153Z,19.15
2019-05-13T11:16:35.629Z,18.18
2019-05-13T11:17:35.649Z,17.80
2019-05-13T11:18:35.677Z,18.10
2019-05-13T11:19:37.087Z,17.80
2019-05-13T11:20:35.712Z,18.46
2019-05-13T11:21:35.721Z,18.65
2019-05-13T11:22:35.739Z,18.93
2019-05-13T11:23:35.762Z,18.73
2019-05-13T11:24:35.771Z,18.93
2019-05-13T11:25:35.788Z,19.04
2019-05-13T11:26:36.463Z,18.46
2019-05-13T11:27:35.834Z,18.46
2019-05-13T11:28:35.849Z,18.16
2019-05-13T11:29:35.869Z,18.26
2019-05-13T11:30:35.889Z,18.35
2019-05-13T11:31:35.967Z,18.55
2019-05-13T11:32:35.910Z,18.45
2019-05-13T11:33:35.940Z,18.26
2019-05-13T11:34:35.956Z,18.37
2019-05-13T11:35:35.965Z,17.58
2019-05-13T11:36:35.984Z,17.77
2019-05-13T11:37:35.998Z,18.44
2019-05-13T11:38:36.023Z,18.27
2019-05-13T11:39:36.061Z,17.90
2019-05-13T11:40:36.076Z,17.22
2019-05-13T11:41:36.093Z,16.83
2019-05-13T11:42:36.210Z,17.03
2019-05-13T11:43:36.108Z,16.83
2019-05-13T11:44:36.132Z,16.94
2019-05-13T11:45:36.146Z,16.56
2019-05-13T11:46:36.171Z,16.66
2019-05-13T11:47:36.190Z,16.44
2019-05-13T11:48:36.214Z,17.13
2019-05-13T11:49:36.221Z,16.63
2019-05-13T11:50:36.244Z,16.53
2019-05-13T11:51:36.252Z,16.53
2019-05-13T11:52:36.273Z,16.91
2019-05-13T11:53:37.662Z,17.19
2019-05-13T11:54:36.308Z,17.58
2019-05-13T11:55:36.324Z,18.27
2019-05-13T11:56:36.345Z,17.49
2019-05-13T11:57:36.371Z,17.60
2019-05-13T11:58:36.377Z,17.62
2019-05-13T11:59:36.400Z,16.17
2019-05-13T12:00:36.412Z,16.47
2019-05-13T12:01:36.430Z,16.48
2019-05-13T12:02:36.449Z,16.29
2019-05-13T12:03:36.465Z,15.50
2019-05-13T12:04:36.481Z,15.40
2019-05-13T12:05:36.497Z,16.27
2019-05-13T12:06:43.789Z,16.47
2019-05-13T12:07:36.571Z,16.47
2019-05-13T12:08:36.566Z,16.19
2019-05-13T12:09:36.583Z,16.19
2019-05-13T12:10:36.613Z,15.99
2019-05-13T12:11:36.610Z,16.27
2019-05-13T12:12:36.628Z,16.64
2019-05-13T12:13:36.644Z,17.33
2019-05-13T12:14:56.529Z,17.64
2019-05-13T12:15:45.958Z,17.85
2019-05-13T12:16:36.696Z,17.18
2019-05-13T12:17:36.719Z,16.69
2019-05-13T12:18:43.248Z,16.49
2019-05-13T12:19:36.751Z,16.10
2019-05-13T12:20:36.796Z,15.80
2019-05-13T12:21:41.917Z,15.50
2019-05-13T12:22:36.805Z,15.51
2019-05-13T12:23:36.827Z,15.38
2019-05-13T12:24:36.856Z,16.44
2019-05-13T12:25:36.875Z,17.21
2019-05-13T12:26:36.882Z,17.69
2019-05-13T12:27:36.901Z,17.70
2019-05-13T12:28:36.908Z,17.72
2019-05-13T12:29:36.946Z,17.35
2019-05-13T12:30:36.957Z,16.95
2019-05-13T12:31:36.972Z,17.13
2019-05-13T12:32:37.005Z,17.34
2019-05-13T12:33:37.014Z,17.44
2019-05-13T12:34:40.991Z,17.35
2019-05-13T12:35:37.057Z,16.98
2019-05-13T12:36:37.067Z,16.31
2019-05-13T12:37:37.088Z,15.61
2019-05-13T12:38:37.105Z,15.99
2019-05-13T12:39:37.116Z,16.38
2019-05-13T12:40:37.132Z,16.39
2019-05-13T12:41:37.153Z,16.20
2019-05-13T12:42:43.263Z,16.29
2019-05-13T12:43:37.189Z,16.39
2019-05-13T12:44:59.745Z,16.39
2019-05-13T12:45:37.239Z,16.41
2019-05-13T12:46:37.261Z,15.93
2019-05-13T12:47:37.255Z,15.05
2019-05-13T12:48:37.276Z,15.25
2019-05-13T12:49:37.303Z,15.26
2019-05-13T12:50:37.336Z,15.17
2019-05-13T12:51:37.337Z,15.08
2019-05-13T12:52:37.350Z,14.37
2019-05-13T12:53:37.374Z,14.36
2019-05-13T12:54:37.395Z,14.92
2019-05-13T12:55:37.427Z,15.61
2019-05-13T12:56:37.428Z,15.33
2019-05-13T12:57:37.465Z,14.45
2019-05-13T12:58:37.466Z,14.95
2019-05-13T12:59:37.487Z,14.36
2019-05-13T13:00:37.507Z,14.86
2019-05-13T13:01:37.529Z,14.37
2019-05-13T13:02:37.550Z,14.64
2019-05-13T13:03:37.559Z,15.02
2019-05-13T13:04:37.593Z,15.40
2019-05-13T13:05:37.606Z,15.48
2019-05-13T13:06:41.597Z,15.97
2019-05-13T13:07:41.221Z,16.35
2019-05-13T13:08:43.358Z,17.13
2019-05-13T13:09:37.664Z,16.56
2019-05-13T13:10:37.689Z,16.39
2019-05-13T13:11:37.709Z,15.72
2019-05-13T13:12:37.773Z,14.94
2019-05-13T13:13:58.974Z,14.84
2019-05-13T13:14:39.630Z,14.65
2019-05-13T13:15:42.382Z,14.27
2019-05-13T13:16:37.828Z,13.89
2019-05-13T13:17:37.827Z,14.09
2019-05-13T13:18:37.838Z,13.40
2019-05-13T13:19:37.854Z,12.81
2019-05-13T13:20:42.111Z,12.82
2019-05-13T13:21:37.990Z,12.43
2019-05-13T13:22:37.913Z,13.60
2019-05-13T13:23:37.932Z,13.69
2019-05-13T13:24:37.954Z,13.89
2019-05-13T13:25:38.044Z,13.89
2019-05-13T13:26:37.986Z,13.49
2019-05-13T13:28:03.146Z,13.21
2019-05-13T13:28:38.061Z,13.28
2019-05-13T13:29:38.045Z,14.23
2019-05-13T13:30:38.059Z,14.72
2019-05-13T13:31:38.082Z,15.01
2019-05-13T13:32:38.126Z,15.30
2019-05-13T13:33:38.109Z,15.01
2019-05-13T13:34:38.135Z,14.72
2019-05-13T13:35:38.162Z,14.62
2019-05-13T13:36:38.168Z,14.72
2019-05-13T13:37:38.257Z,14.91
2019-05-13T13:38:38.208Z,15.11
2019-05-13T13:39:38.224Z,14.92
2019-05-13T13:40:38.246Z,14.64
2019-05-13T13:41:38.263Z,14.47
2019-05-13T13:42:38.270Z,14.18
2019-05-13T13:43:38.333Z,14.09
2019-05-13T13:44:38.319Z,13.49
2019-05-13T13:46:06.098Z,14.18
2019-05-13T13:46:44.649Z,13.89
2019-05-13T13:47:38.390Z,13.89
2019-05-13T13:48:38.390Z,14.17
2019-05-13T13:49:38.411Z,14.27
2019-05-13T13:50:38.440Z,14.07
2019-05-13T13:51:38.458Z,14.45
2019-05-13T13:52:38.464Z,15.01
2019-05-13T13:53:38.599Z,15.48
2019-05-13T13:54:38.505Z,16.44
2019-05-13T13:55:38.525Z,16.35
2019-05-13T13:56:38.557Z,16.64
2019-05-13T13:57:38.563Z,16.76
2019-05-13T13:58:38.577Z,15.61
2019-05-13T14:00:13.738Z,15.24
2019-05-13T14:00:52.559Z,14.48
2019-05-13T14:01:38.629Z,13.70
2019-05-13T14:02:38.658Z,13.60
2019-05-13T14:03:38.670Z,13.70
2019-05-13T14:04:38.693Z,13.60
2019-05-13T14:05:38.699Z,13.61
2019-05-13T14:07:39.873Z,12.34
2019-05-13T14:08:41.388Z,12.63
2019-05-13T14:09:38.784Z,12.92
2019-05-13T14:10:38.820Z,13.60
2019-05-13T14:11:38.812Z,13.50
2019-05-13T14:12:38.847Z,13.80
2019-05-13T14:13:38.857Z,13.80
2019-05-13T14:14:41.234Z,13.51
2019-05-13T14:15:41.538Z,13.81
2019-05-13T14:16:38.912Z,13.62
2019-05-13T14:17:38.924Z,13.13
2019-05-13T14:18:41.709Z,12.95
2019-05-13T14:19:38.969Z,12.65
2019-05-13T14:20:38.989Z,13.02
2019-05-13T14:21:41.466Z,13.61
2019-05-13T14:22:41.777Z,13.60
2019-05-13T14:23:39.047Z,13.90
2019-05-13T14:24:39.064Z,13.81
2019-05-13T14:25:41.891Z,13.63
2019-05-13T14:26:39.100Z,13.45
2019-05-13T14:27:39.122Z,12.77
2019-05-13T14:28:41.919Z,12.77
2019-05-13T14:29:45.972Z,12.76
2019-05-13T14:30:39.180Z,13.05
2019-05-13T14:31:41.313Z,13.04
2019-05-13T14:32:39.227Z,13.14
2019-05-13T14:33:39.248Z,13.13
2019-05-13T14:34:41.865Z,13.52
2019-05-13T14:35:41.465Z,13.52
2019-05-13T14:36:39.288Z,13.71
2019-05-13T14:37:39.314Z,13.61
2019-05-13T14:38:39.327Z,13.50
2019-05-13T14:39:39.465Z,14.38
2019-05-13T14:40:39.392Z,14.18
2019-05-13T14:41:39.391Z,13.79
2019-05-13T14:42:39.412Z,14.09
2019-05-13T14:43:39.461Z,13.70
2019-05-13T14:44:39.437Z,13.90
2019-05-13T14:46:55.448Z,13.32
2019-05-13T14:47:39.489Z,12.93
2019-05-13T14:48:39.509Z,13.34
2019-05-13T14:49:42.109Z,13.14
2019-05-13T14:50:41.617Z,13.14
2019-05-13T14:51:41.490Z,13.12
2019-05-13T14:52:41.636Z,13.68
2019-05-13T14:53:41.598Z,14.47
2019-05-13T14:54:41.845Z,14.47
2019-05-13T14:55:41.900Z,14.56
2019-05-13T14:56:41.832Z,13.88
2019-05-13T14:57:41.904Z,14.07
2019-05-13T14:58:41.853Z,14.27
2019-05-13T14:59:41.413Z,14.28
2019-05-13T15:01:41.341Z,13.10
2019-05-13T15:02:41.929Z,13.29
2019-05-13T15:03:41.572Z,13.98
2019-05-13T15:04:41.894Z,13.78
2019-05-13T15:05:39.821Z,14.26
2019-05-13T15:06:41.677Z,14.55
2019-05-13T15:07:42.068Z,14.27
2019-05-13T15:08:42.202Z,14.17
2019-05-13T15:09:42.018Z,14.28
2019-05-13T15:10:41.931Z,14.46
2019-05-13T15:11:41.905Z,14.06
2019-05-13T15:12:41.567Z,14.55
2019-05-13T15:13:42.296Z,15.04
2019-05-13T15:14:42.441Z,15.22
2019-05-13T15:15:42.125Z,14.34
2019-05-13T15:16:42.389Z,14.43
2019-05-13T15:17:42.473Z,14.61
2019-05-13T15:18:41.642Z,15.28
2019-05-13T15:19:41.974Z,15.86
2019-05-13T15:20:41.710Z,16.05
2019-05-13T15:21:41.278Z,16.07
2019-05-13T15:22:42.324Z,15.01
2019-05-13T15:23:42.208Z,15.19
2019-05-13T15:24:41.263Z,15.67
2019-05-13T15:25:42.008Z,15.95
2019-05-13T15:26:42.227Z,16.43
2019-05-13T15:27:41.998Z,16.99
2019-05-13T15:28:42.192Z,17.76
2019-05-13T15:29:41.784Z,18.31
2019-05-13T15:30:42.093Z,19.35
2019-05-13T15:31:42.185Z,19.93
2019-05-13T15:32:42.013Z,20.79
2019-05-13T15:33:41.597Z,21.56
2019-05-13T15:34:42.473Z,21.75
2019-05-13T15:35:41.936Z,22.50
2019-05-13T15:36:41.934Z,22.78
2019-05-13T15:37:41.778Z,22.78
2019-05-13T15:39:42.547Z,23.74
2019-05-13T15:40:41.479Z,23.72
2019-05-13T15:41:41.773Z,24.68
2019-05-13T15:42:40.575Z,24.96
2019-05-13T15:43:42.161Z,24.67
2019-05-13T15:44:40.451Z,24.76
2019-05-13T15:45:42.510Z,24.86
2019-05-13T15:46:41.654Z,24.67
2019-05-13T15:47:40.504Z,24.76
2019-05-13T15:48:42.215Z,25.07
2019-05-13T15:49:40.552Z,24.68
2019-05-13T15:50:42.229Z,24.77
2019-05-13T15:51:42.242Z,24.68
2019-05-13T15:52:43.258Z,24.39
2019-05-13T15:53:40.586Z,23.22
2019-05-13T15:54:41.432Z,23.61
2019-05-13T15:55:40.617Z,24.37
2019-05-13T15:56:40.636Z,25.32
2019-05-13T15:57:42.777Z,25.88
2019-05-13T15:58:43.574Z,26.65
2019-05-13T15:59:41.485Z,27.04
2019-05-13T16:00:41.938Z,27.33
2019-05-13T16:01:41.443Z,28.58
2019-05-13T16:02:42.144Z,28.86
2019-05-13T16:03:41.554Z,28.67
2019-05-13T16:04:49.929Z,28.49
2019-05-13T16:05:42.357Z,29.07
2019-05-13T16:06:41.785Z,29.07
2019-05-13T16:07:41.736Z,28.59
2019-05-13T16:08:43.311Z,28.78
2019-05-13T16:09:42.056Z,29.36
2019-05-13T16:10:41.907Z,29.46
2019-05-13T16:11:41.549Z,29.93
2019-05-13T16:12:40.824Z,30.60
2019-05-13T16:13:40.842Z,30.50
2019-05-13T16:14:41.458Z,30.69
2019-05-13T16:15:41.647Z,30.71
2019-05-13T16:16:41.666Z,30.42
2019-05-13T16:17:44.467Z,30.52
2019-05-13T16:18:41.973Z,31.00
2019-05-13T16:19:41.982Z,30.80
2019-05-13T16:20:44.478Z,31.09
2019-05-13T16:21:41.614Z,30.71
2019-05-13T16:22:42.001Z,30.61
2019-05-13T16:23:42.926Z,30.98
2019-05-13T16:24:41.631Z,31.56
2019-05-13T16:25:41.628Z,31.18
2019-05-13T16:26:42.630Z,31.46
2019-05-13T16:27:41.660Z,31.56
2019-05-13T16:28:41.854Z,31.35
2019-05-13T16:29:42.248Z,31.54
2019-05-13T16:30:42.035Z,31.26
2019-05-13T16:31:41.710Z,31.64
2019-05-13T16:32:42.434Z,31.74
2019-05-13T16:33:41.762Z,31.54
2019-05-13T16:34:42.285Z,31.93
2019-05-13T16:35:42.507Z,32.41
2019-05-13T16:36:42.812Z,32.70
2019-05-13T16:37:41.892Z,32.60
2019-05-13T16:38:41.911Z,32.81
2019-05-13T16:39:41.597Z,32.62
2019-05-13T16:40:42.373Z,32.98
2019-05-13T16:41:42.594Z,33.18
2019-05-13T16:42:42.195Z,33.45
2019-05-13T16:43:42.623Z,33.84
2019-05-13T16:44:43.003Z,34.03
2019-05-13T16:45:42.342Z,34.12
2019-05-13T16:46:42.452Z,34.12
2019-05-13T16:47:56.231Z,34.12
2019-05-13T16:48:41.725Z,33.93
2019-05-13T16:49:41.249Z,34.22
2019-05-13T16:50:41.824Z,34.41
2019-05-13T16:51:42.727Z,34.41
2019-05-13T16:52:41.849Z,34.61
2019-05-13T16:53:42.231Z,34.80
2019-05-13T16:54:42.433Z,34.61
2019-05-13T16:55:41.642Z,34.31
2019-05-13T16:56:41.994Z,34.89
2019-05-13T16:57:42.355Z,34.49
2019-05-13T16:58:41.822Z,34.97
2019-05-13T16:59:41.357Z,34.97
2019-05-13T17:00:42.470Z,34.97
2019-05-13T17:01:41.973Z,35.16
2019-05-13T17:02:42.220Z,35.55
2019-05-13T17:03:41.693Z,35.34
2019-05-13T17:04:41.571Z,35.55
2019-05-13T17:05:42.004Z,35.53
2019-05-13T17:06:41.728Z,35.91
2019-05-13T17:07:42.153Z,36.11
2019-05-13T17:08:42.483Z,36.20
2019-05-13T17:09:41.675Z,36.20
2019-05-13T17:10:41.984Z,35.64
2019-05-13T17:11:41.692Z,35.74
2019-05-13T17:12:43.027Z,35.55
2019-05-13T17:14:41.693Z,35.93
2019-05-13T17:15:41.757Z,36.01
2019-05-13T17:16:42.230Z,36.01
2019-05-13T17:17:41.562Z,36.20
2019-05-13T17:18:41.901Z,36.20
2019-05-13T17:19:42.209Z,36.49
2019-05-13T17:20:41.588Z,36.58
2019-05-13T17:21:41.610Z,36.49
2019-05-13T17:22:42.379Z,36.40
2019-05-13T17:23:41.917Z,36.49
2019-05-13T17:24:42.658Z,36.58
2019-05-13T17:25:42.326Z,36.88
2019-05-13T17:26:41.950Z,36.40
2019-05-13T17:27:41.660Z,36.90
2019-05-13T17:28:41.887Z,36.88
2019-05-13T17:29:41.686Z,36.49
2019-05-13T17:30:41.697Z,36.58
2019-05-13T17:31:41.915Z,36.88
2019-05-13T17:32:41.708Z,36.30
2019-05-13T17:33:41.730Z,36.58
2019-05-13T17:34:45.490Z,36.97
2019-05-13T17:35:41.927Z,36.68
2019-05-13T17:36:42.084Z,36.58
2019-05-13T17:37:42.287Z,36.58
2019-05-13T17:38:41.775Z,36.78
2019-05-13T17:39:41.779Z,36.95
2019-05-13T17:40:42.139Z,36.95
2019-05-13T17:41:41.802Z,37.24
2019-05-13T17:42:41.810Z,37.15
2019-05-13T17:43:41.829Z,36.68
2019-05-13T17:44:45.914Z,36.95
2019-05-13T17:45:41.873Z,36.86
2019-05-13T17:46:42.108Z,36.57
2019-05-13T17:47:42.046Z,36.68
2019-05-13T17:48:41.880Z,36.88
2019-05-13T17:49:41.984Z,36.88
2019-05-13T17:50:41.907Z,36.58
2019-05-13T17:51:42.529Z,36.76
2019-05-13T17:52:41.913Z,37.05
2019-05-13T17:53:41.925Z,37.53
2019-05-13T17:54:42.768Z,37.72
2019-05-13T17:55:41.948Z,37.91
2019-05-13T17:56:41.962Z,37.91
2019-05-13T17:57:41.978Z,37.43
2019-05-13T17:58:42.143Z,37.72
2019-05-13T17:59:42.007Z,37.34
2019-05-13T18:00:41.996Z,37.89
2019-05-13T18:01:42.012Z,37.60
2019-05-13T18:02:42.172Z,38.39
2019-05-13T18:03:42.032Z,38.29
2019-05-13T18:04:42.062Z,38.78
2019-05-13T18:05:42.204Z,38.78
2019-05-13T18:06:42.068Z,38.49
2019-05-13T18:07:42.186Z,38.95
2019-05-13T18:08:42.072Z,38.85
2019-05-13T18:09:42.466Z,39.04
2019-05-13T18:10:42.103Z,39.14
2019-05-13T18:11:42.108Z,39.33
2019-05-13T18:12:42.139Z,39.53
2019-05-13T18:13:43.756Z,39.72
2019-05-13T18:14:42.138Z,39.91
2019-05-13T18:15:42.150Z,39.81
2019-05-13T18:16:42.235Z,39.91
2019-05-13T18:17:42.174Z,40.10
2019-05-13T18:18:47.082Z,40.29
2019-05-13T18:19:42.339Z,40.29
2019-05-13T18:20:42.196Z,40.39
2019-05-13T18:21:42.587Z,40.56
2019-05-13T18:22:42.247Z,41.13
2019-05-13T18:23:42.227Z,41.33
2019-05-13T18:24:42.237Z,40.94
2019-05-13T18:25:42.339Z,41.04
2019-05-13T18:26:42.264Z,41.42
2019-05-13T18:27:42.272Z,41.61
2019-05-13T18:28:42.295Z,41.61
2019-05-13T18:29:42.289Z,41.90
2019-05-13T18:30:42.296Z,41.61
2019-05-13T18:31:42.406Z,42.00
2019-05-13T18:32:42.312Z,41.80
2019-05-13T18:33:42.501Z,42.27
2019-05-13T18:34:42.322Z,42.27
2019-05-13T18:35:42.342Z,42.55
2019-05-13T18:36:42.768Z,42.46
2019-05-13T18:37:42.365Z,42.84
2019-05-13T18:38:42.366Z,42.94
2019-05-13T18:39:42.387Z,43.03
2019-05-13T18:40:42.383Z,43.03
2019-05-13T18:41:42.404Z,43.80
2019-05-13T18:42:42.404Z,43.51
2019-05-13T18:43:42.418Z,43.60
2019-05-13T18:44:42.430Z,43.41
2019-05-13T18:45:42.457Z,43.80
2019-05-13T18:46:42.459Z,44.26
2019-05-13T18:47:42.463Z,44.26
2019-05-13T18:48:57.750Z,44.37
2019-05-13T18:49:42.549Z,44.27
2019-05-13T18:50:42.499Z,44.26
2019-05-13T18:51:42.502Z,44.16
2019-05-13T18:52:42.511Z,44.35
2019-05-13T18:53:42.518Z,44.35
2019-05-13T18:54:42.527Z,44.54
2019-05-13T18:55:42.526Z,44.93
2019-05-13T18:56:42.535Z,45.21
2019-05-13T18:57:42.553Z,44.83
2019-05-13T18:58:42.565Z,45.02
2019-05-13T18:59:42.569Z,44.93
2019-05-13T19:00:42.590Z,45.21
2019-05-13T19:01:42.584Z,45.40
2019-05-13T19:02:42.613Z,45.02
2019-05-13T19:03:42.594Z,45.29
2019-05-13T19:04:42.609Z,45.38
2019-05-13T19:05:42.619Z,46.08
2019-05-13T19:06:42.647Z,46.15
2019-05-13T19:07:43.271Z,46.34
2019-05-13T19:08:42.648Z,46.15
2019-05-13T19:09:42.657Z,46.46
2019-05-13T19:10:42.679Z,46.15
2019-05-13T19:11:42.942Z,46.53
2019-05-13T19:12:42.700Z,46.34
2019-05-13T19:13:43.275Z,46.25
2019-05-13T19:14:42.729Z,46.34
2019-05-13T19:15:42.736Z,46.62
2019-05-13T19:16:42.729Z,46.82
2019-05-13T19:17:42.724Z,46.82
2019-05-13T19:18:42.754Z,47.30
2019-05-13T19:19:42.747Z,47.20
2019-05-13T19:20:42.766Z,47.01
2019-05-13T19:21:42.761Z,47.39
2019-05-13T19:22:42.769Z,47.49
2019-05-13T19:24:42.792Z,48.04
2019-05-13T19:25:42.925Z,48.04